sensor_id;sensor_type;location;lat;lon;timestamp;P1;durP1;ratioP1;P2;durP2;ratioP2
21213;SDS011;10764;50.850;2.904;2024-02-26T00:01:31;1132.97;;;981.88;;
21213;SDS011;10764;50.850;2.904;2024-02-26T00:04:00;1133.03;;;978.45;;
21213;SDS011;10764;50.850;2.904;2024-02-26T00:06:29;1135.50;;;980.50;;
21213;SDS011;10764;50.850;2.904;2024-02-26T00:08:57;1139.45;;;982.70;;
21213;SDS011;10764;50.850;2.904;2024-02-26T00:11:25;1138.97;;;983.67;;
21213;SDS011;10764;50.850;2.904;2024-02-26T00:13:53;1141.68;;;985.58;;
21213;SDS011;10764;50.850;2.904;2024-02-26T00:16:21;1140.35;;;983.80;;
21213;SDS011;10764;50.850;2.904;2024-02-26T00:18:48;1141.28;;;984.15;;
21213;SDS011;10764;50.850;2.904;2024-02-26T00:21:16;1142.50;;;987.83;;
21213;SDS011;10764;50.850;2.904;2024-02-26T00:23:43;1141.65;;;986.55;;
21213;SDS011;10764;50.850;2.904;2024-02-26T00:26:11;1145.90;;;992.17;;
21213;SDS011;10764;50.850;2.904;2024-02-26T00:28:38;1168.93;;;999.90;;
21213;SDS011;10764;50.850;2.904;2024-02-26T00:31:05;1166.63;;;999.90;;
21213;SDS011;10764;50.850;2.904;2024-02-26T00:33:33;1176.00;;;999.90;;
21213;SDS011;10764;50.850;2.904;2024-02-26T00:36:00;1166.65;;;999.90;;
21213;SDS011;10764;50.850;2.904;2024-02-26T00:38:28;1164.82;;;999.90;;
21213;SDS011;10764;50.850;2.904;2024-02-26T00:40:55;1165.45;;;999.90;;
21213;SDS011;10764;50.850;2.904;2024-02-26T00:43:22;1163.88;;;999.90;;
21213;SDS011;10764;50.850;2.904;2024-02-26T00:45:50;1132.80;;;976.20;;
21213;SDS011;10764;50.850;2.904;2024-02-26T00:48:18;1137.05;;;983.22;;
21213;SDS011;10764;50.850;2.904;2024-02-26T00:50:46;1137.68;;;981.75;;
21213;SDS011;10764;50.850;2.904;2024-02-26T00:53:13;1132.32;;;976.45;;
21213;SDS011;10764;50.850;2.904;2024-02-26T00:55:40;1131.40;;;972.03;;
21213;SDS011;10764;50.850;2.904;2024-02-26T00:58:07;1129.18;;;970.75;;
21213;SDS011;10764;50.850;2.904;2024-02-26T01:00:35;1129.90;;;969.65;;
21213;SDS011;10764;50.850;2.904;2024-02-26T01:03:05;1129.43;;;973.30;;
21213;SDS011;10764;50.850;2.904;2024-02-26T01:05:32;1131.85;;;975.35;;
21213;SDS011;10764;50.850;2.904;2024-02-26T01:08:00;1130.05;;;975.70;;
21213;SDS011;10764;50.850;2.904;2024-02-26T01:10:28;1134.95;;;977.15;;
21213;SDS011;10764;50.850;2.904;2024-02-26T01:12:55;1131.15;;;975.10;;
21213;SDS011;10764;50.850;2.904;2024-02-26T01:15:22;1131.18;;;974.45;;
21213;SDS011;10764;50.850;2.904;2024-02-26T01:17:50;1131.70;;;974.20;;
21213;SDS011;10764;50.850;2.904;2024-02-26T01:20:18;1132.60;;;973.47;;
21213;SDS011;10764;50.850;2.904;2024-02-26T01:22:45;1134.88;;;978.53;;
21213;SDS011;10764;50.850;2.904;2024-02-26T01:25:13;1132.47;;;975.83;;
21213;SDS011;10764;50.850;2.904;2024-02-26T01:27:40;1130.18;;;973.25;;
21213;SDS011;10764;50.850;2.904;2024-02-26T01:30:09;1136.88;;;978.75;;
21213;SDS011;10764;50.850;2.904;2024-02-26T01:32:36;1132.15;;;974.83;;
21213;SDS011;10764;50.850;2.904;2024-02-26T01:35:03;1132.35;;;974.08;;
21213;SDS011;10764;50.850;2.904;2024-02-26T01:37:31;1136.22;;;978.25;;
21213;SDS011;10764;50.850;2.904;2024-02-26T01:39:58;1135.97;;;978.88;;
21213;SDS011;10764;50.850;2.904;2024-02-26T01:42:25;1137.20;;;980.80;;
21213;SDS011;10764;50.850;2.904;2024-02-26T01:44:52;1141.28;;;986.30;;
21213;SDS011;10764;50.850;2.904;2024-02-26T01:47:20;1140.82;;;983.35;;
21213;SDS011;10764;50.850;2.904;2024-02-26T01:49:47;1140.23;;;985.47;;
21213;SDS011;10764;50.850;2.904;2024-02-26T01:52:15;1138.30;;;979.85;;
21213;SDS011;10764;50.850;2.904;2024-02-26T01:54:42;1138.75;;;982.13;;
21213;SDS011;10764;50.850;2.904;2024-02-26T01:57:12;1140.55;;;980.55;;
21213;SDS011;10764;50.850;2.904;2024-02-26T01:59:40;1139.45;;;985.45;;
21213;SDS011;10764;50.850;2.904;2024-02-26T02:02:08;1138.18;;;983.67;;
21213;SDS011;10764;50.850;2.904;2024-02-26T02:04:38;1138.35;;;983.95;;
21213;SDS011;10764;50.850;2.904;2024-02-26T02:07:05;1134.18;;;979.25;;
21213;SDS011;10764;50.850;2.904;2024-02-26T02:09:32;1133.32;;;977.70;;
21213;SDS011;10764;50.850;2.904;2024-02-26T02:12:00;1133.50;;;980.75;;
21213;SDS011;10764;50.850;2.904;2024-02-26T02:14:27;1135.45;;;979.58;;
21213;SDS011;10764;50.850;2.904;2024-02-26T02:16:55;1134.83;;;978.13;;
21213;SDS011;10764;50.850;2.904;2024-02-26T02:19:22;1140.60;;;985.30;;
21213;SDS011;10764;50.850;2.904;2024-02-26T02:21:49;1139.57;;;986.00;;
21213;SDS011;10764;50.850;2.904;2024-02-26T02:24:16;1138.82;;;982.92;;
21213;SDS011;10764;50.850;2.904;2024-02-26T02:26:44;1132.20;;;977.33;;
21213;SDS011;10764;50.850;2.904;2024-02-26T02:29:11;1141.97;;;986.73;;
21213;SDS011;10764;50.850;2.904;2024-02-26T02:31:39;1140.97;;;989.55;;
21213;SDS011;10764;50.850;2.904;2024-02-26T02:34:07;1145.25;;;988.50;;
21213;SDS011;10764;50.850;2.904;2024-02-26T02:36:47;1142.22;;;988.15;;
21213;SDS011;10764;50.850;2.904;2024-02-26T02:39:15;1145.60;;;991.72;;
21213;SDS011;10764;50.850;2.904;2024-02-26T02:41:43;1146.13;;;992.63;;
21213;SDS011;10764;50.850;2.904;2024-02-26T02:44:10;1145.28;;;992.80;;
21213;SDS011;10764;50.850;2.904;2024-02-26T02:46:38;1147.70;;;993.97;;
21213;SDS011;10764;50.850;2.904;2024-02-26T02:49:08;1150.53;;;996.45;;
21213;SDS011;10764;50.850;2.904;2024-02-26T02:51:37;1149.35;;;995.10;;
21213;SDS011;10764;50.850;2.904;2024-02-26T02:54:04;1145.97;;;991.13;;
21213;SDS011;10764;50.850;2.904;2024-02-26T02:56:31;1140.13;;;988.67;;
21213;SDS011;10764;50.850;2.904;2024-02-26T02:58:59;1147.50;;;997.80;;
21213;SDS011;10764;50.850;2.904;2024-02-26T03:01:26;1138.72;;;984.78;;
21213;SDS011;10764;50.850;2.904;2024-02-26T03:03:53;1132.68;;;980.17;;
21213;SDS011;10764;50.850;2.904;2024-02-26T03:06:21;1135.80;;;984.15;;
21213;SDS011;10764;50.850;2.904;2024-02-26T03:08:48;1135.95;;;982.42;;
21213;SDS011;10764;50.850;2.904;2024-02-26T03:11:15;1137.43;;;985.72;;
21213;SDS011;10764;50.850;2.904;2024-02-26T03:13:43;1135.85;;;981.92;;
21213;SDS011;10764;50.850;2.904;2024-02-26T03:16:10;1136.35;;;981.88;;
21213;SDS011;10764;50.850;2.904;2024-02-26T03:18:40;1140.03;;;988.92;;
21213;SDS011;10764;50.850;2.904;2024-02-26T03:21:07;1140.35;;;988.30;;
21213;SDS011;10764;50.850;2.904;2024-02-26T03:23:35;1137.88;;;986.17;;
21213;SDS011;10764;50.850;2.904;2024-02-26T03:26:05;1135.95;;;984.08;;
21213;SDS011;10764;50.850;2.904;2024-02-26T03:28:33;1135.35;;;981.78;;
21213;SDS011;10764;50.850;2.904;2024-02-26T03:31:01;1138.78;;;987.35;;
21213;SDS011;10764;50.850;2.904;2024-02-26T03:33:28;1139.65;;;988.13;;
21213;SDS011;10764;50.850;2.904;2024-02-26T03:35:56;1137.00;;;984.73;;
21213;SDS011;10764;50.850;2.904;2024-02-26T03:38:23;1135.40;;;980.95;;
21213;SDS011;10764;50.850;2.904;2024-02-26T03:40:51;1137.88;;;985.05;;
21213;SDS011;10764;50.850;2.904;2024-02-26T03:43:18;1135.13;;;981.65;;
21213;SDS011;10764;50.850;2.904;2024-02-26T03:45:46;1140.70;;;989.22;;
21213;SDS011;10764;50.850;2.904;2024-02-26T03:48:13;1141.82;;;989.80;;
21213;SDS011;10764;50.850;2.904;2024-02-26T03:50:40;1143.78;;;991.83;;
21213;SDS011;10764;50.850;2.904;2024-02-26T03:53:07;1140.50;;;988.67;;
21213;SDS011;10764;50.850;2.904;2024-02-26T03:55:39;1147.03;;;992.97;;
21213;SDS011;10764;50.850;2.904;2024-02-26T03:58:08;1149.60;;;994.77;;
21213;SDS011;10764;50.850;2.904;2024-02-26T04:00:36;1140.03;;;984.63;;
21213;SDS011;10764;50.850;2.904;2024-02-26T04:03:04;1141.15;;;986.97;;
21213;SDS011;10764;50.850;2.904;2024-02-26T04:05:31;1149.07;;;995.45;;
21213;SDS011;10764;50.850;2.904;2024-02-26T04:07:58;1148.63;;;997.90;;
21213;SDS011;10764;50.850;2.904;2024-02-26T04:10:25;1148.88;;;997.85;;
21213;SDS011;10764;50.850;2.904;2024-02-26T04:12:53;1153.78;;;999.83;;
21213;SDS011;10764;50.850;2.904;2024-02-26T04:15:20;1160.60;;;999.90;;
21213;SDS011;10764;50.850;2.904;2024-02-26T04:17:47;1157.80;;;999.90;;
21213;SDS011;10764;50.850;2.904;2024-02-26T04:20:15;1158.22;;;999.90;;
21213;SDS011;10764;50.850;2.904;2024-02-26T04:22:43;1158.47;;;999.90;;
21213;SDS011;10764;50.850;2.904;2024-02-26T04:25:11;1155.82;;;999.90;;
21213;SDS011;10764;50.850;2.904;2024-02-26T04:27:38;1153.50;;;999.60;;
21213;SDS011;10764;50.850;2.904;2024-02-26T04:30:06;1153.97;;;999.90;;
21213;SDS011;10764;50.850;2.904;2024-02-26T04:32:34;1151.53;;;999.90;;
21213;SDS011;10764;50.850;2.904;2024-02-26T04:35:04;1164.25;;;999.90;;
21213;SDS011;10764;50.850;2.904;2024-02-26T04:37:32;1154.80;;;999.90;;
21213;SDS011;10764;50.850;2.904;2024-02-26T04:39:59;1152.72;;;999.90;;
21213;SDS011;10764;50.850;2.904;2024-02-26T04:42:26;1151.68;;;999.90;;
21213;SDS011;10764;50.850;2.904;2024-02-26T04:44:54;1152.80;;;999.90;;
21213;SDS011;10764;50.850;2.904;2024-02-26T04:47:21;1149.88;;;999.50;;
21213;SDS011;10764;50.850;2.904;2024-02-26T04:49:49;1153.63;;;999.90;;
21213;SDS011;10764;50.850;2.904;2024-02-26T04:52:17;1151.88;;;999.90;;
21213;SDS011;10764;50.850;2.904;2024-02-26T04:54:44;1152.53;;;999.90;;
21213;SDS011;10764;50.850;2.904;2024-02-26T04:57:11;1149.32;;;997.83;;
21213;SDS011;10764;50.850;2.904;2024-02-26T04:59:39;1150.18;;;999.75;;
21213;SDS011;10764;50.850;2.904;2024-02-26T05:02:08;1149.37;;;997.43;;
21213;SDS011;10764;50.850;2.904;2024-02-26T05:04:36;1146.85;;;996.80;;
21213;SDS011;10764;50.850;2.904;2024-02-26T05:07:03;1149.00;;;998.73;;
21213;SDS011;10764;50.850;2.904;2024-02-26T05:09:31;1149.20;;;999.90;;
21213;SDS011;10764;50.850;2.904;2024-02-26T05:11:59;1145.07;;;993.40;;
21213;SDS011;10764;50.850;2.904;2024-02-26T05:14:26;1147.10;;;997.88;;
21213;SDS011;10764;50.850;2.904;2024-02-26T05:16:54;1146.23;;;997.83;;
21213;SDS011;10764;50.850;2.904;2024-02-26T05:19:22;1145.03;;;997.97;;
21213;SDS011;10764;50.850;2.904;2024-02-26T05:21:50;1147.13;;;996.95;;
21213;SDS011;10764;50.850;2.904;2024-02-26T05:24:17;1147.35;;;999.90;;
21213;SDS011;10764;50.850;2.904;2024-02-26T05:26:45;1147.53;;;999.78;;
21213;SDS011;10764;50.850;2.904;2024-02-26T05:29:12;1146.38;;;997.97;;
21213;SDS011;10764;50.850;2.904;2024-02-26T05:31:41;1144.80;;;997.03;;
21213;SDS011;10764;50.850;2.904;2024-02-26T05:34:09;1147.07;;;999.45;;
21213;SDS011;10764;50.850;2.904;2024-02-26T05:36:36;1140.13;;;991.83;;
21213;SDS011;10764;50.850;2.904;2024-02-26T05:39:03;1138.63;;;986.95;;
21213;SDS011;10764;50.850;2.904;2024-02-26T05:41:31;1135.30;;;987.30;;
21213;SDS011;10764;50.850;2.904;2024-02-26T05:43:59;1140.33;;;994.40;;
21213;SDS011;10764;50.850;2.904;2024-02-26T05:46:26;1137.40;;;982.08;;
21213;SDS011;10764;50.850;2.904;2024-02-26T05:48:54;1136.43;;;984.13;;
21213;SDS011;10764;50.850;2.904;2024-02-26T05:51:21;1138.03;;;983.90;;
21213;SDS011;10764;50.850;2.904;2024-02-26T05:53:49;1138.22;;;983.80;;
21213;SDS011;10764;50.850;2.904;2024-02-26T05:56:24;1137.15;;;983.08;;
21213;SDS011;10764;50.850;2.904;2024-02-26T05:58:51;1137.93;;;983.03;;
21213;SDS011;10764;50.850;2.904;2024-02-26T06:01:19;1137.45;;;979.88;;
21213;SDS011;10764;50.850;2.904;2024-02-26T06:03:46;1138.47;;;981.47;;
21213;SDS011;10764;50.850;2.904;2024-02-26T06:06:14;1139.60;;;985.92;;
21213;SDS011;10764;50.850;2.904;2024-02-26T06:08:42;1140.67;;;986.27;;
21213;SDS011;10764;50.850;2.904;2024-02-26T06:11:09;1136.47;;;982.92;;
21213;SDS011;10764;50.850;2.904;2024-02-26T06:13:36;1136.72;;;985.65;;
21213;SDS011;10764;50.850;2.904;2024-02-26T06:16:04;1135.53;;;981.78;;
21213;SDS011;10764;50.850;2.904;2024-02-26T06:18:32;1134.82;;;983.72;;
21213;SDS011;10764;50.850;2.904;2024-02-26T06:20:59;1136.40;;;983.65;;
21213;SDS011;10764;50.850;2.904;2024-02-26T06:23:26;1137.10;;;980.08;;
21213;SDS011;10764;50.850;2.904;2024-02-26T06:25:54;1139.33;;;988.40;;
21213;SDS011;10764;50.850;2.904;2024-02-26T06:28:21;1134.03;;;980.72;;
21213;SDS011;10764;50.850;2.904;2024-02-26T06:30:48;1136.50;;;984.60;;
21213;SDS011;10764;50.850;2.904;2024-02-26T06:33:16;1132.50;;;980.28;;
21213;SDS011;10764;50.850;2.904;2024-02-26T06:35:44;1132.95;;;980.45;;
21213;SDS011;10764;50.850;2.904;2024-02-26T06:38:11;1137.90;;;984.47;;
21213;SDS011;10764;50.850;2.904;2024-02-26T06:40:40;1137.50;;;983.60;;
21213;SDS011;10764;50.850;2.904;2024-02-26T06:43:07;1135.18;;;979.80;;
21213;SDS011;10764;50.850;2.904;2024-02-26T06:45:34;1134.85;;;978.45;;
21213;SDS011;10764;50.850;2.904;2024-02-26T06:48:02;1139.82;;;987.15;;
21213;SDS011;10764;50.850;2.904;2024-02-26T06:50:29;1139.43;;;984.23;;
21213;SDS011;10764;50.850;2.904;2024-02-26T06:52:57;1136.07;;;979.40;;
21213;SDS011;10764;50.850;2.904;2024-02-26T06:55:24;1136.00;;;980.38;;
21213;SDS011;10764;50.850;2.904;2024-02-26T06:57:51;1128.28;;;971.22;;
21213;SDS011;10764;50.850;2.904;2024-02-26T07:00:18;1164.75;;;999.90;;
21213;SDS011;10764;50.850;2.904;2024-02-26T07:02:46;1143.78;;;988.67;;
21213;SDS011;10764;50.850;2.904;2024-02-26T07:05:13;1139.82;;;983.97;;
21213;SDS011;10764;50.850;2.904;2024-02-26T07:07:40;1140.88;;;983.67;;
21213;SDS011;10764;50.850;2.904;2024-02-26T07:10:07;1137.18;;;982.05;;
21213;SDS011;10764;50.850;2.904;2024-02-26T07:12:35;1137.77;;;982.70;;
21213;SDS011;10764;50.850;2.904;2024-02-26T07:15:02;1139.82;;;985.20;;
21213;SDS011;10764;50.850;2.904;2024-02-26T07:17:30;1139.30;;;984.30;;
21213;SDS011;10764;50.850;2.904;2024-02-26T07:19:57;1135.88;;;979.42;;
21213;SDS011;10764;50.850;2.904;2024-02-26T07:22:24;1136.85;;;983.00;;
21213;SDS011;10764;50.850;2.904;2024-02-26T07:24:51;1149.13;;;995.50;;
21213;SDS011;10764;50.850;2.904;2024-02-26T07:27:19;1142.63;;;989.00;;
21213;SDS011;10764;50.850;2.904;2024-02-26T07:29:48;1139.97;;;985.67;;
21213;SDS011;10764;50.850;2.904;2024-02-26T07:32:15;1138.65;;;984.70;;
21213;SDS011;10764;50.850;2.904;2024-02-26T07:34:42;1138.97;;;980.03;;
21213;SDS011;10764;50.850;2.904;2024-02-26T07:37:11;1139.60;;;982.47;;
21213;SDS011;10764;50.850;2.904;2024-02-26T07:39:38;1140.95;;;986.88;;
21213;SDS011;10764;50.850;2.904;2024-02-26T07:42:05;1139.35;;;980.58;;
21213;SDS011;10764;50.850;2.904;2024-02-26T07:44:33;1139.25;;;979.28;;
21213;SDS011;10764;50.850;2.904;2024-02-26T07:47:00;1138.20;;;983.85;;
21213;SDS011;10764;50.850;2.904;2024-02-26T07:49:29;1139.55;;;981.63;;
21213;SDS011;10764;50.850;2.904;2024-02-26T07:51:56;1138.22;;;980.63;;
21213;SDS011;10764;50.850;2.904;2024-02-26T07:54:25;1139.43;;;980.27;;
21213;SDS011;10764;50.850;2.904;2024-02-26T07:56:52;1137.40;;;977.45;;
21213;SDS011;10764;50.850;2.904;2024-02-26T07:59:19;1138.50;;;978.55;;
21213;SDS011;10764;50.850;2.904;2024-02-26T08:01:50;1139.47;;;983.67;;
21213;SDS011;10764;50.850;2.904;2024-02-26T08:04:24;1136.53;;;977.85;;
21213;SDS011;10764;50.850;2.904;2024-02-26T08:06:53;1137.07;;;979.40;;
21213;SDS011;10764;50.850;2.904;2024-02-26T08:09:20;1137.55;;;981.08;;
21213;SDS011;10764;50.850;2.904;2024-02-26T08:11:47;1139.05;;;982.47;;
21213;SDS011;10764;50.850;2.904;2024-02-26T08:14:15;1140.25;;;982.47;;
21213;SDS011;10764;50.850;2.904;2024-02-26T08:16:42;1138.82;;;981.95;;
21213;SDS011;10764;50.850;2.904;2024-02-26T08:19:10;1141.82;;;975.97;;
21213;SDS011;10764;50.850;2.904;2024-02-26T08:21:40;1141.63;;;980.43;;
21213;SDS011;10764;50.850;2.904;2024-02-26T08:24:07;1143.68;;;981.78;;
21213;SDS011;10764;50.850;2.904;2024-02-26T08:26:34;1144.53;;;979.03;;
21213;SDS011;10764;50.850;2.904;2024-02-26T08:29:02;1147.07;;;983.70;;
21213;SDS011;10764;50.850;2.904;2024-02-26T08:31:29;1143.03;;;983.53;;
21213;SDS011;10764;50.850;2.904;2024-02-26T08:33:56;1145.15;;;982.90;;
21213;SDS011;10764;50.850;2.904;2024-02-26T08:36:25;1142.23;;;982.07;;
21213;SDS011;10764;50.850;2.904;2024-02-26T08:38:53;1143.07;;;981.58;;
21213;SDS011;10764;50.850;2.904;2024-02-26T08:41:20;1142.47;;;981.90;;
21213;SDS011;10764;50.850;2.904;2024-02-26T08:43:48;1141.95;;;981.05;;
21213;SDS011;10764;50.850;2.904;2024-02-26T08:46:15;1139.45;;;980.70;;
21213;SDS011;10764;50.850;2.904;2024-02-26T08:48:42;1140.60;;;982.85;;
21213;SDS011;10764;50.850;2.904;2024-02-26T08:51:10;1143.53;;;982.30;;
21213;SDS011;10764;50.850;2.904;2024-02-26T08:53:38;1147.15;;;987.13;;
21213;SDS011;10764;50.850;2.904;2024-02-26T08:56:09;1142.82;;;981.08;;
21213;SDS011;10764;50.850;2.904;2024-02-26T08:58:44;1139.10;;;978.25;;
21213;SDS011;10764;50.850;2.904;2024-02-26T09:01:15;1141.20;;;980.37;;
21213;SDS011;10764;50.850;2.904;2024-02-26T09:03:43;1139.05;;;979.72;;
21213;SDS011;10764;50.850;2.904;2024-02-26T09:06:11;1137.43;;;976.53;;
21213;SDS011;10764;50.850;2.904;2024-02-26T09:08:38;1151.80;;;987.35;;
21213;SDS011;10764;50.850;2.904;2024-02-26T09:11:05;1139.90;;;982.53;;
21213;SDS011;10764;50.850;2.904;2024-02-26T09:13:33;1143.00;;;982.95;;
21213;SDS011;10764;50.850;2.904;2024-02-26T09:15:59;1143.88;;;987.22;;
21213;SDS011;10764;50.850;2.904;2024-02-26T09:18:27;1142.72;;;985.83;;
21213;SDS011;10764;50.850;2.904;2024-02-26T09:20:55;1141.25;;;986.95;;
21213;SDS011;10764;50.850;2.904;2024-02-26T09:23:23;1141.13;;;981.03;;
21213;SDS011;10764;50.850;2.904;2024-02-26T09:25:51;1139.20;;;980.58;;
21213;SDS011;10764;50.850;2.904;2024-02-26T09:28:19;1139.60;;;980.92;;
21213;SDS011;10764;50.850;2.904;2024-02-26T09:30:46;1138.47;;;982.20;;
21213;SDS011;10764;50.850;2.904;2024-02-26T09:33:15;1139.95;;;978.22;;
21213;SDS011;10764;50.850;2.904;2024-02-26T09:35:43;1138.07;;;978.83;;
21213;SDS011;10764;50.850;2.904;2024-02-26T09:38:13;1139.53;;;982.17;;
21213;SDS011;10764;50.850;2.904;2024-02-26T09:40:41;1140.78;;;980.22;;
21213;SDS011;10764;50.850;2.904;2024-02-26T09:43:08;1140.90;;;982.70;;
21213;SDS011;10764;50.850;2.904;2024-02-26T09:45:37;1140.15;;;983.03;;
21213;SDS011;10764;50.850;2.904;2024-02-26T09:48:05;1142.05;;;982.83;;
21213;SDS011;10764;50.850;2.904;2024-02-26T09:50:37;1141.25;;;984.35;;
21213;SDS011;10764;50.850;2.904;2024-02-26T09:53:05;1139.78;;;981.60;;
21213;SDS011;10764;50.850;2.904;2024-02-26T09:55:36;1142.88;;;985.38;;
21213;SDS011;10764;50.850;2.904;2024-02-26T09:58:04;1140.25;;;979.38;;
21213;SDS011;10764;50.850;2.904;2024-02-26T10:00:33;1141.80;;;981.78;;
21213;SDS011;10764;50.850;2.904;2024-02-26T10:03:05;1139.82;;;980.92;;
21213;SDS011;10764;50.850;2.904;2024-02-26T10:05:34;1138.97;;;985.13;;
21213;SDS011;10764;50.850;2.904;2024-02-26T10:08:02;1141.40;;;984.83;;
21213;SDS011;10764;50.850;2.904;2024-02-26T10:10:31;1140.27;;;984.07;;
21213;SDS011;10764;50.850;2.904;2024-02-26T10:12:59;1138.65;;;980.95;;
21213;SDS011;10764;50.850;2.904;2024-02-26T10:15:28;1140.15;;;982.63;;
21213;SDS011;10764;50.850;2.904;2024-02-26T10:17:58;1138.63;;;981.38;;
21213;SDS011;10764;50.850;2.904;2024-02-26T10:20:34;1138.82;;;981.58;;
21213;SDS011;10764;50.850;2.904;2024-02-26T10:23:02;1139.93;;;983.03;;
21213;SDS011;10764;50.850;2.904;2024-02-26T10:25:30;1138.75;;;982.15;;
21213;SDS011;10764;50.850;2.904;2024-02-26T10:28:01;1138.55;;;982.08;;
21213;SDS011;10764;50.850;2.904;2024-02-26T10:30:28;1139.70;;;980.57;;
21213;SDS011;10764;50.850;2.904;2024-02-26T10:32:57;1139.50;;;980.67;;
21213;SDS011;10764;50.850;2.904;2024-02-26T10:35:24;1140.55;;;983.75;;
21213;SDS011;10764;50.850;2.904;2024-02-26T10:37:52;1138.15;;;981.08;;
21213;SDS011;10764;50.850;2.904;2024-02-26T10:40:20;1138.25;;;980.58;;
21213;SDS011;10764;50.850;2.904;2024-02-26T10:42:48;1142.25;;;985.17;;
21213;SDS011;10764;50.850;2.904;2024-02-26T10:45:15;1139.18;;;982.90;;
21213;SDS011;10764;50.850;2.904;2024-02-26T10:47:43;1139.03;;;980.85;;
21213;SDS011;10764;50.850;2.904;2024-02-26T10:50:11;1140.53;;;983.83;;
21213;SDS011;10764;50.850;2.904;2024-02-26T10:52:42;1141.25;;;984.53;;
21213;SDS011;10764;50.850;2.904;2024-02-26T10:55:15;1141.03;;;984.53;;
21213;SDS011;10764;50.850;2.904;2024-02-26T10:57:47;1140.18;;;983.35;;
21213;SDS011;10764;50.850;2.904;2024-02-26T11:00:15;1141.47;;;986.50;;
21213;SDS011;10764;50.850;2.904;2024-02-26T11:02:43;1140.75;;;985.78;;
21213;SDS011;10764;50.850;2.904;2024-02-26T11:05:11;1140.15;;;980.50;;
21213;SDS011;10764;50.850;2.904;2024-02-26T11:07:39;1143.68;;;985.25;;
21213;SDS011;10764;50.850;2.904;2024-02-26T11:10:08;1143.10;;;983.63;;
21213;SDS011;10764;50.850;2.904;2024-02-26T11:12:36;1143.95;;;985.22;;
21213;SDS011;10764;50.850;2.904;2024-02-26T11:15:06;1139.95;;;981.95;;
21213;SDS011;10764;50.850;2.904;2024-02-26T11:17:35;1139.03;;;982.60;;
21213;SDS011;10764;50.850;2.904;2024-02-26T11:20:05;1139.75;;;982.85;;
21213;SDS011;10764;50.850;2.904;2024-02-26T11:22:35;1138.43;;;980.15;;
21213;SDS011;10764;50.850;2.904;2024-02-26T11:25:04;1142.10;;;983.78;;
21213;SDS011;10764;50.850;2.904;2024-02-26T11:27:38;1138.05;;;982.75;;
21213;SDS011;10764;50.850;2.904;2024-02-26T11:30:09;1139.60;;;980.37;;
21213;SDS011;10764;50.850;2.904;2024-02-26T11:32:38;1139.45;;;981.85;;
21213;SDS011;10764;50.850;2.904;2024-02-26T11:35:05;1142.88;;;986.17;;
21213;SDS011;10764;50.850;2.904;2024-02-26T11:37:36;1139.20;;;980.22;;
21213;SDS011;10764;50.850;2.904;2024-02-26T11:40:13;1138.50;;;980.97;;
21213;SDS011;10764;50.850;2.904;2024-02-26T11:42:44;1140.80;;;983.47;;
21213;SDS011;10764;50.850;2.904;2024-02-26T11:51:08;1139.78;;;985.10;;
21213;SDS011;10764;50.850;2.904;2024-02-26T11:53:46;1139.35;;;983.60;;
21213;SDS011;10764;50.850;2.904;2024-02-26T11:58:44;1141.50;;;984.45;;
21213;SDS011;10764;50.850;2.904;2024-02-26T12:04:09;1139.38;;;978.50;;
21213;SDS011;10764;50.850;2.904;2024-02-26T12:06:50;1138.67;;;981.13;;
21213;SDS011;10764;50.850;2.904;2024-02-26T12:09:30;1138.72;;;982.40;;
21213;SDS011;10764;50.850;2.904;2024-02-26T12:11:58;1139.70;;;984.33;;
21213;SDS011;10764;50.850;2.904;2024-02-26T12:14:25;1139.85;;;983.45;;
21213;SDS011;10764;50.850;2.904;2024-02-26T12:16:56;1140.13;;;983.60;;
21213;SDS011;10764;50.850;2.904;2024-02-26T12:19:24;1140.85;;;982.35;;
21213;SDS011;10764;50.850;2.904;2024-02-26T12:21:52;1137.80;;;980.33;;
21213;SDS011;10764;50.850;2.904;2024-02-26T12:24:22;1139.75;;;982.33;;
21213;SDS011;10764;50.850;2.904;2024-02-26T12:26:49;1140.35;;;985.10;;
21213;SDS011;10764;50.850;2.904;2024-02-26T12:29:17;1140.15;;;985.30;;
21213;SDS011;10764;50.850;2.904;2024-02-26T12:31:45;1140.88;;;984.92;;
21213;SDS011;10764;50.850;2.904;2024-02-26T12:34:12;1139.10;;;983.03;;
21213;SDS011;10764;50.850;2.904;2024-02-26T12:36:40;1137.77;;;982.67;;
21213;SDS011;10764;50.850;2.904;2024-02-26T12:39:07;1136.10;;;980.03;;
21213;SDS011;10764;50.850;2.904;2024-02-26T12:41:37;1147.80;;;991.47;;
21213;SDS011;10764;50.850;2.904;2024-02-26T12:44:05;1142.82;;;981.25;;
21213;SDS011;10764;50.850;2.904;2024-02-26T12:46:34;1142.47;;;986.75;;
21213;SDS011;10764;50.850;2.904;2024-02-26T12:49:05;1141.70;;;982.90;;
21213;SDS011;10764;50.850;2.904;2024-02-26T12:51:33;1141.65;;;986.33;;
21213;SDS011;10764;50.850;2.904;2024-02-26T12:54:02;1142.53;;;984.60;;
21213;SDS011;10764;50.850;2.904;2024-02-26T12:56:31;1146.45;;;989.97;;
21213;SDS011;10764;50.850;2.904;2024-02-26T12:58:58;1147.57;;;986.92;;
21213;SDS011;10764;50.850;2.904;2024-02-26T13:01:26;1146.30;;;989.88;;
21213;SDS011;10764;50.850;2.904;2024-02-26T13:03:53;1132.72;;;972.97;;
21213;SDS011;10764;50.850;2.904;2024-02-26T13:06:21;1146.43;;;987.00;;
21213;SDS011;10764;50.850;2.904;2024-02-26T13:08:49;1146.55;;;985.17;;
21213;SDS011;10764;50.850;2.904;2024-02-26T13:11:17;1146.93;;;984.28;;
21213;SDS011;10764;50.850;2.904;2024-02-26T13:13:47;1143.15;;;982.72;;
21213;SDS011;10764;50.850;2.904;2024-02-26T13:16:15;1146.27;;;982.63;;
21213;SDS011;10764;50.850;2.904;2024-02-26T13:18:43;1141.93;;;982.30;;
21213;SDS011;10764;50.850;2.904;2024-02-26T13:21:12;1144.35;;;982.45;;
21213;SDS011;10764;50.850;2.904;2024-02-26T13:23:40;1146.80;;;981.22;;
21213;SDS011;10764;50.850;2.904;2024-02-26T13:26:08;1140.00;;;980.72;;
21213;SDS011;10764;50.850;2.904;2024-02-26T13:28:35;1140.90;;;978.22;;
21213;SDS011;10764;50.850;2.904;2024-02-26T13:31:03;1142.75;;;978.58;;
21213;SDS011;10764;50.850;2.904;2024-02-26T13:33:33;1144.43;;;980.43;;
21213;SDS011;10764;50.850;2.904;2024-02-26T13:36:01;1143.78;;;981.03;;
21213;SDS011;10764;50.850;2.904;2024-02-26T13:38:28;1146.35;;;983.67;;
21213;SDS011;10764;50.850;2.904;2024-02-26T13:40:55;1142.20;;;979.63;;
21213;SDS011;10764;50.850;2.904;2024-02-26T13:43:23;1146.18;;;984.55;;
21213;SDS011;10764;50.850;2.904;2024-02-26T13:45:51;1143.32;;;980.17;;
21213;SDS011;10764;50.850;2.904;2024-02-26T13:48:20;1142.38;;;979.42;;
21213;SDS011;10764;50.850;2.904;2024-02-26T13:50:47;1142.32;;;979.25;;
21213;SDS011;10764;50.850;2.904;2024-02-26T13:53:15;1142.97;;;981.00;;
21213;SDS011;10764;50.850;2.904;2024-02-26T13:55:43;1144.03;;;979.47;;
21213;SDS011;10764;50.850;2.904;2024-02-26T13:58:11;1142.20;;;981.25;;
21213;SDS011;10764;50.850;2.904;2024-02-26T14:00:39;1143.45;;;980.10;;